Time;durP1;ratioP1;P1;durP2;ratioP2;P2;SDS_P1;SDS_P2;PMS_P1;PMS_P2;Temp;Humidity;BMP_temperature;BMP_pressure;BME280_temperature;BME280_humidity;BME280_pressure;Samples;Min_cycle;Max_cycle;Signal;HPM_P1;HPM_P2
2021/08/04 00:02:01;;;;;;;1.98;1.00;;;;;;;;;;5074361;28;20021;-60
2021/08/04 00:04:26;;;;;;;2.50;0.52;;;;;;;;;;5073975;28;20021;-58
2021/08/04 00:06:51;;;;;;;1.15;0.60;;;;;;;;;;5072753;28;20124;-58
2021/08/04 00:09:16;;;;;;;2.70;0.70;;;;;;;;;;5061883;28;20104;-60
2021/08/04 00:11:42;;;;;;;3.92;1.05;;;;;;;;;;5062899;28;20065;-60
2021/08/04 00:14:07;;;;;;;2.13;1.05;;;;;;;;;;5073765;28;20020;-59
2021/08/04 00:16:33;;;;;;;2.75;1.05;;;;;;;;;;5074160;28;20402;-60
2021/08/04 00:18:58;;;;;;;2.90;1.10;;;;;;;;;;5073709;28;20459;-58
2021/08/04 00:21:23;;;;;;;1.52;1.13;;;;;;;;;;5073659;28;20016;-58
2021/08/04 00:23:49;;;;;;;6.53;1.38;;;;;;;;;;5073808;28;20514;-59
2021/08/04 00:26:14;;;;;;;1.55;0.98;;;;;;;;;;5073661;28;20035;-59
2021/08/04 00:28:39;;;;;;;1.88;1.00;;;;;;;;;;5073583;28;20470;-57
2021/08/04 00:31:04;;;;;;;2.28;1.40;;;;;;;;;;5073810;28;20016;-59
2021/08/04 00:33:30;;;;;;;1.98;1.20;;;;;;;;;;5073395;28;20059;-58
2021/08/04 00:35:55;;;;;;;3.90;1.45;;;;;;;;;;5073732;28;20103;-60
2021/08/04 00:38:20;;;;;;;1.73;1.10;;;;;;;;;;5073662;28;20024;-59
2021/08/04 00:40:46;;;;;;;1.35;1.00;;;;;;;;;;5073099;28;20080;-60
2021/08/04 00:43:11;;;;;;;3.08;1.00;;;;;;;;;;5073112;28;20478;-59
2021/08/04 00:45:36;;;;;;;3.13;1.20;;;;;;;;;;5073586;28;20514;-60
2021/08/04 00:48:03;;;;;;;3.45;1.70;;;;;;;;;;5073435;28;20510;-59
2021/08/04 00:50:28;;;;;;;3.97;1.60;;;;;;;;;;5073409;28;20024;-60
2021/08/04 00:52:53;;;;;;;5.00;1.77;;;;;;;;;;5073397;28;20092;-59
2021/08/04 00:55:18;;;;;;;2.65;1.67;;;;;;;;;;5073107;28;20025;-60
2021/08/04 00:57:43;;;;;;;4.00;2.15;;;;;;;;;;5072892;28;20033;-60
2021/08/04 01:00:09;;;;;;;4.00;1.92;;;;;;;;;;5073091;28;20043;-60
2021/08/04 01:02:44;;;;;;;3.53;2.20;;;;;;;;;;5073131;28;20070;-60
2021/08/04 01:05:13;;;;;;;2.80;1.95;;;;;;;;;;5072740;28;20027;-59
2021/08/04 01:07:45;;;;;;;2.65;1.90;;;;;;;;;;5073111;28;20101;-60
2021/08/04 01:10:17;;;;;;;3.63;1.77;;;;;;;;;;5070838;28;20044;-59
2021/08/04 01:12:44;;;;;;;3.25;1.92;;;;;;;;;;5072928;28;20375;-60
2021/08/04 01:15:10;;;;;;;2.45;1.90;;;;;;;;;;5072834;28;20037;-59
2021/08/04 01:17:37;;;;;;;3.40;1.60;;;;;;;;;;5073002;28;20020;-60
2021/08/04 01:20:13;;;;;;;3.45;1.88;;;;;;;;;;5072611;28;20505;-59
2021/08/04 01:22:38;;;;;;;4.15;2.60;;;;;;;;;;5072429;28;20035;-60
2021/08/04 01:25:14;;;;;;;4.30;2.80;;;;;;;;;;5072257;28;20028;-60
2021/08/04 01:27:42;;;;;;;3.33;2.83;;;;;;;;;;5072762;28;20020;-59
2021/08/04 01:30:09;;;;;;;5.60;3.22;;;;;;;;;;5072492;28;20098;-60
2021/08/04 01:32:34;;;;;;;4.63;3.00;;;;;;;;;;5072754;28;20027;-59
2021/08/04 01:35:01;;;;;;;4.00;2.33;;;;;;;;;;5072299;28;20020;-57
2021/08/04 01:37:26;;;;;;;9.07;2.70;;;;;;;;;;5072459;28;20048;-59
2021/08/04 01:39:52;;;;;;;3.38;2.58;;;;;;;;;;5071364;28;20063;-59
2021/08/04 01:42:18;;;;;;;3.63;2.22;;;;;;;;;;5072640;28;20462;-60
2021/08/04 01:44:43;;;;;;;3.83;2.92;;;;;;;;;;5071887;28;20363;-60
2021/08/04 01:47:09;;;;;;;3.10;2.13;;;;;;;;;;5072499;28;20024;-58
2021/08/04 01:49:35;;;;;;;4.82;2.58;;;;;;;;;;5071910;28;20047;-60
2021/08/04 01:52:00;;;;;;;3.03;2.53;;;;;;;;;;5072255;28;20114;-59
2021/08/04 01:54:26;;;;;;;5.70;4.70;;;;;;;;;;5072138;28;20529;-60
2021/08/04 01:56:51;;;;;;;4.60;2.55;;;;;;;;;;5072144;28;20104;-59
2021/08/04 01:59:20;;;;;;;2.58;1.60;;;;;;;;;;5071905;28;20074;-60
2021/08/04 02:01:45;;;;;;;4.30;1.83;;;;;;;;;;5072167;28;20103;-60
2021/08/04 02:04:10;;;;;;;4.80;2.05;;;;;;;;;;5071682;28;20120;-60
2021/08/04 02:06:42;;;;;;;1.67;1.42;;;;;;;;;;5072072;28;20048;-59
2021/08/04 02:09:13;;;;;;;2.30;1.83;;;;;;;;;;5063886;28;20020;-60
2021/08/04 02:12:04;;;;;;;2.58;2.20;;;;;;;;;;5052749;28;20028;-60
2021/08/04 02:14:35;;;;;;;5.35;1.80;;;;;;;;;;5066543;28;20048;-60
2021/08/04 02:17:06;;;;;;;3.10;1.85;;;;;;;;;;5072156;28;20553;-59
2021/08/04 02:19:47;;;;;;;2.20;2.05;;;;;;;;;;5072031;28;20099;-59
2021/08/04 02:22:34;;;;;;;5.50;2.10;;;;;;;;;;5071581;28;20032;-59
2021/08/04 02:25:03;;;;;;;5.28;1.85;;;;;;;;;;5071918;28;20458;-59
2021/08/04 02:27:29;;;;;;;2.53;1.45;;;;;;;;;;5071836;28;20366;-58
2021/08/04 02:29:55;;;;;;;2.45;1.80;;;;;;;;;;5070520;28;20019;-59
2021/08/04 02:32:21;;;;;;;2.70;1.70;;;;;;;;;;5071707;28;20083;-59
2021/08/04 02:34:46;;;;;;;5.68;2.20;;;;;;;;;;5071589;28;20082;-60
2021/08/04 02:37:11;;;;;;;8.27;5.78;;;;;;;;;;5071890;28;20034;-59
2021/08/04 02:39:37;;;;;;;1.90;1.70;;;;;;;;;;5071435;28;20027;-60
2021/08/04 02:42:03;;;;;;;2.33;1.83;;;;;;;;;;5071911;28;20059;-59
2021/08/04 02:44:28;;;;;;;1.75;1.65;;;;;;;;;;5071176;28;20378;-59
2021/08/04 02:46:54;;;;;;;4.65;1.45;;;;;;;;;;5071711;28;20485;-59
2021/08/04 02:49:19;;;;;;;1.98;1.63;;;;;;;;;;5071760;28;20108;-59
2021/08/04 02:51:45;;;;;;;5.20;1.98;;;;;;;;;;5071435;28;20103;-59
2021/08/04 02:54:14;;;;;;;1.70;1.60;;;;;;;;;;5071690;28;20043;-59
2021/08/04 02:56:39;;;;;;;2.83;1.88;;;;;;;;;;5071276;28;20564;-59
2021/08/04 02:59:04;;;;;;;2.60;1.70;;;;;;;;;;5071101;28;20025;-58
2021/08/04 03:01:30;;;;;;;3.38;1.90;;;;;;;;;;5071721;28;20017;-59
2021/08/04 03:03:55;;;;;;;1.85;1.70;;;;;;;;;;5071253;28;20024;-59
2021/08/04 03:06:20;;;;;;;3.83;2.03;;;;;;;;;;5071363;28;20044;-59
2021/08/04 03:08:45;;;;;;;2.85;1.90;;;;;;;;;;5071042;28;20134;-60
2021/08/04 03:11:10;;;;;;;4.07;2.13;;;;;;;;;;5071038;28;20462;-59
2021/08/04 03:13:36;;;;;;;4.13;1.90;;;;;;;;;;5071113;28;20070;-59
2021/08/04 03:16:01;;;;;;;3.58;2.20;;;;;;;;;;5071430;28;20041;-57
2021/08/04 03:18:27;;;;;;;2.33;2.08;;;;;;;;;;5071291;28;20063;-59
2021/08/04 03:20:52;;;;;;;2.65;2.00;;;;;;;;;;5071597;28;20074;-60
2021/08/04 03:23:18;;;;;;;8.85;6.72;;;;;;;;;;5071412;28;20028;-59
2021/08/04 03:25:43;;;;;;;13.25;10.13;;;;;;;;;;5070731;28;20492;-59
2021/08/04 03:28:08;;;;;;;3.45;2.42;;;;;;;;;;5070897;28;20530;-59
2021/08/04 03:30:33;;;;;;;4.07;2.38;;;;;;;;;;5071278;28;20107;-59
2021/08/04 03:32:58;;;;;;;4.60;2.55;;;;;;;;;;5071167;28;20028;-59
2021/08/04 03:35:24;;;;;;;4.32;2.90;;;;;;;;;;5071120;28;20111;-59
2021/08/04 03:37:49;;;;;;;3.30;2.30;;;;;;;;;;5053410;28;20397;-59
2021/08/04 03:40:14;;;;;;;4.72;3.40;;;;;;;;;;5070570;28;20462;-59
2021/08/04 03:42:39;;;;;;;4.38;2.88;;;;;;;;;;5074058;28;20021;-59
2021/08/04 03:45:05;;;;;;;3.33;3.03;;;;;;;;;;5074381;28;20048;-59
2021/08/04 03:47:30;;;;;;;5.63;3.17;;;;;;;;;;5074549;28;20028;-59
2021/08/04 03:49:55;;;;;;;3.45;3.13;;;;;;;;;;5074763;28;20051;-59
2021/08/04 03:52:21;;;;;;;3.40;3.10;;;;;;;;;;5074612;28;20020;-59
2021/08/04 03:54:46;;;;;;;2.90;2.50;;;;;;;;;;5074169;28;20271;-59
2021/08/04 03:57:11;;;;;;;3.58;3.28;;;;;;;;;;5074459;28;20016;-58
2021/08/04 03:59:36;;;;;;;3.25;2.90;;;;;;;;;;5056411;28;20513;-58
2021/08/04 04:02:02;;;;;;;6.10;3.63;;;;;;;;;;5056604;28;20020;-59
2021/08/04 04:04:27;;;;;;;3.55;3.22;;;;;;;;;;5074003;28;20017;-58
2021/08/04 04:06:52;;;;;;;3.78;3.38;;;;;;;;;;5073949;28;20040;-59
2021/08/04 04:09:18;;;;;;;6.32;3.35;;;;;;;;;;5063673;28;20025;-59
2021/08/04 04:11:43;;;;;;;5.82;3.60;;;;;;;;;;5057913;28;20013;-58
2021/08/04 04:14:08;;;;;;;3.60;2.90;;;;;;;;;;5073439;28;20474;-59
2021/08/04 04:16:34;;;;;;;3.55;2.85;;;;;;;;;;5073754;28;20032;-59
2021/08/04 04:18:59;;;;;;;4.18;2.63;;;;;;;;;;5074155;28;20029;-59
2021/08/04 04:21:24;;;;;;;4.72;3.13;;;;;;;;;;5074288;28;20044;-59
2021/08/04 04:23:49;;;;;;;3.15;2.65;;;;;;;;;;5074120;28;20393;-59
2021/08/04 04:26:14;;;;;;;3.90;2.83;;;;;;;;;;5073909;28;20020;-60
2021/08/04 04:28:40;;;;;;;5.30;2.63;;;;;;;;;;5073393;28;20107;-59
2021/08/04 04:31:05;;;;;;;3.80;2.75;;;;;;;;;;5074011;28;20031;-59
2021/08/04 04:33:30;;;;;;;5.68;3.17;;;;;;;;;;5073521;28;20051;-59
2021/08/04 04:35:58;;;;;;;4.30;3.15;;;;;;;;;;5073868;28;20074;-59
2021/08/04 04:38:23;;;;;;;5.68;3.40;;;;;;;;;;5072905;28;20023;-59
2021/08/04 04:40:48;;;;;;;3.85;2.97;;;;;;;;;;5073332;28;20025;-60
2021/08/04 04:43:13;;;;;;;3.72;3.20;;;;;;;;;;5054818;28;20025;-59
2021/08/04 04:45:39;;;;;;;5.30;3.38;;;;;;;;;;5073390;28;20039;-60
2021/08/04 04:48:04;;;;;;;3.80;3.28;;;;;;;;;;5074141;28;20048;-60
2021/08/04 04:50:30;;;;;;;3.70;3.20;;;;;;;;;;5073534;28;20494;-59
2021/08/04 04:52:56;;;;;;;4.05;3.65;;;;;;;;;;5072732;28;20435;-59
2021/08/04 04:55:21;;;;;;;4.13;2.83;;;;;;;;;;5073305;28;20435;-59
2021/08/04 04:57:46;;;;;;;3.75;3.22;;;;;;;;;;5073462;28;20020;-60
2021/08/04 05:00:12;;;;;;;2.95;2.53;;;;;;;;;;5051410;28;20037;-59
2021/08/04 05:02:37;;;;;;;3.88;3.40;;;;;;;;;;5071279;28;20021;-59
2021/08/04 05:05:03;;;;;;;4.75;3.47;;;;;;;;;;5072771;28;20466;-59
2021/08/04 05:07:28;;;;;;;4.22;3.40;;;;;;;;;;5072988;28;20130;-60
2021/08/04 05:09:55;;;;;;;4.00;3.42;;;;;;;;;;5073407;28;20040;-59
2021/08/04 05:12:20;;;;;;;5.97;2.97;;;;;;;;;;5072787;28;20013;-59
2021/08/04 05:14:45;;;;;;;3.42;3.10;;;;;;;;;;5072253;28;20074;-59
2021/08/04 05:17:13;;;;;;;5.10;3.58;;;;;;;;;;5072940;28;20024;-60
2021/08/04 05:19:38;;;;;;;3.95;3.65;;;;;;;;;;5072941;28;20016;-60
2021/08/04 05:22:03;;;;;;;3.67;3.30;;;;;;;;;;5075461;28;20019;-59
2021/08/04 05:24:28;;;;;;;7.03;3.90;;;;;;;;;;5087798;28;20028;-60
2021/08/04 05:26:54;;;;;;;3.03;2.38;;;;;;;;;;5053093;28;20379;-59
2021/08/04 05:29:19;;;;;;;4.75;3.10;;;;;;;;;;5052500;28;20394;-59
2021/08/04 05:31:44;;;;;;;3.28;2.40;;;;;;;;;;5052726;28;20096;-59
2021/08/04 05:34:09;;;;;;;3.10;2.80;;;;;;;;;;5052080;28;20013;-58
2021/08/04 05:36:34;;;;;;;2.50;2.30;;;;;;;;;;5056216;28;20020;-59
2021/08/04 05:39:00;;;;;;;3.95;2.20;;;;;;;;;;5071993;28;20069;-59
2021/08/04 05:41:25;;;;;;;3.60;2.72;;;;;;;;;;5069419;28;20035;-60
2021/08/04 05:43:50;;;;;;;4.57;2.38;;;;;;;;;;5063046;28;20044;-59
2021/08/04 05:46:15;;;;;;;2.50;2.30;;;;;;;;;;5054307;28;20024;-59
2021/08/04 05:48:40;;;;;;;3.13;2.38;;;;;;;;;;5072056;28;20021;-58
2021/08/04 05:51:06;;;;;;;5.15;2.33;;;;;;;;;;5072171;28;20026;-58
2021/08/04 05:53:31;;;;;;;3.30;2.10;;;;;;;;;;5072139;28;20020;-58
2021/08/04 05:55:56;;;;;;;3.05;2.28;;;;;;;;;;5072153;28;20028;-59
2021/08/04 05:58:21;;;;;;;6.60;2.00;;;;;;;;;;5071873;28;20455;-58
2021/08/04 06:00:47;;;;;;;2.33;2.13;;;;;;;;;;5072086;28;20089;-58
2021/08/04 06:03:12;;;;;;;2.10;2.00;;;;;;;;;;5053880;28;20027;-57
2021/08/04 06:05:37;;;;;;;4.63;1.65;;;;;;;;;;5070694;28;20032;-60
2021/08/04 06:08:02;;;;;;;7.00;2.22;;;;;;;;;;5072002;28;20027;-59
2021/08/04 06:10:28;;;;;;;3.25;2.05;;;;;;;;;;5072131;28;20536;-59
2021/08/04 06:12:53;;;;;;;6.45;2.08;;;;;;;;;;5071538;28;20017;-59
2021/08/04 06:15:18;;;;;;;4.25;1.80;;;;;;;;;;5071288;28;20603;-59
2021/08/04 06:17:43;;;;;;;1.50;1.40;;;;;;;;;;5071927;28;20025;-59
2021/08/04 06:20:09;;;;;;;2.40;1.60;;;;;;;;;;5071737;28;20028;-59
2021/08/04 06:22:34;;;;;;;1.85;1.52;;;;;;;;;;5071931;28;20023;-59
2021/08/04 06:24:59;;;;;;;1.50;1.20;;;;;;;;;;5071500;28;20028;-58
2021/08/04 06:27:24;;;;;;;2.40;1.10;;;;;;;;;;5072012;28;20118;-59
2021/08/04 06:29:49;;;;;;;2.10;1.48;;;;;;;;;;5071485;28;20021;-57
2021/08/04 06:32:15;;;;;;;1.77;1.02;;;;;;;;;;5071895;28;20466;-59
2021/08/04 06:34:40;;;;;;;1.60;1.50;;;;;;;;;;5071164;28;20024;-59
2021/08/04 06:37:06;;;;;;;1.42;1.27;;;;;;;;;;5071464;28;20016;-59
2021/08/04 06:39:31;;;;;;;2.95;1.50;;;;;;;;;;5071524;28;20016;-59
2021/08/04 06:41:57;;;;;;;4.13;1.60;;;;;;;;;;5071753;28;20529;-59
2021/08/04 06:44:22;;;;;;;1.50;1.40;;;;;;;;;;5070028;28;20019;-59
2021/08/04 06:46:48;;;;;;;2.92;1.40;;;;;;;;;;5053461;28;20103;-59
2021/08/04 06:49:13;;;;;;;2.13;1.63;;;;;;;;;;5071427;28;20016;-59
2021/08/04 06:51:38;;;;;;;1.42;1.27;;;;;;;;;;5071324;28;20059;-59
2021/08/04 06:54:04;;;;;;;2.08;1.40;;;;;;;;;;5071358;28;20012;-59
2021/08/04 06:56:29;;;;;;;2.35;1.60;;;;;;;;;;5071528;28;20047;-57
2021/08/04 06:58:54;;;;;;;2.15;1.38;;;;;;;;;;5071294;28;20463;-59
2021/08/04 07:01:19;;;;;;;2.45;1.83;;;;;;;;;;5071365;28;20025;-59
2021/08/04 07:03:45;;;;;;;2.10;2.00;;;;;;;;;;5071319;28;20028;-59
2021/08/04 07:06:11;;;;;;;2.60;1.77;;;;;;;;;;5071073;28;20134;-58
2021/08/04 07:08:36;;;;;;;3.13;1.65;;;;;;;;;;5071354;28;20027;-59
2021/08/04 07:11:02;;;;;;;2.55;1.75;;;;;;;;;;5071465;28;20467;-57
2021/08/04 07:13:27;;;;;;;2.47;1.15;;;;;;;;;;5070411;28;20024;-59
2021/08/04 07:15:52;;;;;;;3.28;1.50;;;;;;;;;;5071342;28;20017;-60
2021/08/04 07:18:17;;;;;;;1.67;1.55;;;;;;;;;;5075339;28;20032;-58
2021/08/04 07:20:43;;;;;;;1.33;1.23;;;;;;;;;;5075058;28;20035;-60
2021/08/04 07:23:08;;;;;;;1.40;1.30;;;;;;;;;;5075031;28;20016;-60
2021/08/04 07:25:33;;;;;;;1.40;1.20;;;;;;;;;;5073975;28;20021;-59
2021/08/04 07:27:58;;;;;;;1.50;1.17;;;;;;;;;;5075139;28;20112;-59
2021/08/04 07:30:25;;;;;;;1.98;1.30;;;;;;;;;;5074313;28;20056;-59
2021/08/04 07:32:50;;;;;;;1.83;1.00;;;;;;;;;;5074776;28;20055;-60
2021/08/04 07:35:16;;;;;;;1.67;1.10;;;;;;;;;;5074373;28;20052;-59
2021/08/04 07:37:41;;;;;;;2.65;1.40;;;;;;;;;;5074745;28;20037;-58
2021/08/04 07:40:07;;;;;;;2.08;1.25;;;;;;;;;;5074807;28;20021;-59
2021/08/04 07:42:33;;;;;;;1.90;1.38;;;;;;;;;;5071395;28;20062;-58
2021/08/04 07:44:58;;;;;;;2.05;1.52;;;;;;;;;;5073438;28;20033;-59
2021/08/04 07:47:23;;;;;;;3.03;1.33;;;;;;;;;;5074449;28;20020;-60
2021/08/04 07:49:49;;;;;;;1.85;0.85;;;;;;;;;;5074708;28;20055;-60
2021/08/04 07:52:14;;;;;;;1.75;1.15;;;;;;;;;;5073878;28;20482;-59
2021/08/04 07:54:39;;;;;;;2.60;1.30;;;;;;;;;;5073251;28;20036;-59
2021/08/04 07:57:05;;;;;;;2.65;2.45;;;;;;;;;;5073768;28;20482;-59
2021/08/04 07:59:30;;;;;;;2.45;1.42;;;;;;;;;;5073984;28;20035;-58
2021/08/04 08:01:55;;;;;;;1.53;1.43;;;;;;;;;;5074565;28;20028;-59
2021/08/04 08:04:21;;;;;;;2.38;1.45;;;;;;;;;;5073884;28;20647;-59
2021/08/04 08:06:46;;;;;;;2.42;1.40;;;;;;;;;;5073768;28;20051;-59
2021/08/04 08:09:13;;;;;;;2.55;1.65;;;;;;;;;;5074488;28;20017;-59
2021/08/04 08:11:38;;;;;;;1.15;1.02;;;;;;;;;;5074101;28;20024;-59
2021/08/04 08:14:03;;;;;;;2.67;1.10;;;;;;;;;;5073534;28;20021;-59
2021/08/04 08:16:29;;;;;;;1.75;1.40;;;;;;;;;;5073958;28;20444;-59
2021/08/04 08:18:54;;;;;;;1.40;1.20;;;;;;;;;;5073740;28;20028;-59
2021/08/04 08:21:23;;;;;;;1.20;1.10;;;;;;;;;;5074120;28;20020;-59
2021/08/04 08:23:48;;;;;;;3.38;1.48;;;;;;;;;;5073946;28;20074;-59
2021/08/04 08:26:14;;;;;;;1.92;1.40;;;;;;;;;;5073402;28;20024;-59
2021/08/04 08:28:39;;;;;;;2.17;1.58;;;;;;;;;;5072312;28;20508;-59
2021/08/04 08:31:04;;;;;;;3.17;1.13;;;;;;;;;;5073982;28;20087;-60
2021/08/04 08:33:29;;;;;;;2.50;1.30;;;;;;;;;;5073731;28;20025;-59
2021/08/04 08:35:54;;;;;;;2.53;1.30;;;;;;;;;;5073719;28;20027;-59
2021/08/04 08:38:20;;;;;;;2.03;0.95;;;;;;;;;;5073693;28;20263;-59
2021/08/04 08:40:46;;;;;;;1.63;0.75;;;;;;;;;;5086258;28;20039;-59
2021/08/04 08:43:12;;;;;;;1.20;1.10;;;;;;;;;;5094002;28;20016;-58
2021/08/04 08:45:37;;;;;;;1.50;1.40;;;;;;;;;;5058291;28;20378;-59
2021/08/04 08:48:02;;;;;;;2.43;1.10;;;;;;;;;;5053550;28;20095;-59
2021/08/04 08:50:27;;;;;;;1.30;1.20;;;;;;;;;;5053351;28;20252;-59
2021/08/04 08:52:54;;;;;;;1.33;1.08;;;;;;;;;;5066864;28;20028;-59
2021/08/04 08:55:19;;;;;;;2.30;1.55;;;;;;;;;;5073139;28;20047;-59
2021/08/04 08:57:44;;;;;;;2.10;1.65;;;;;;;;;;5073400;28;20017;-60
2021/08/04 09:00:10;;;;;;;2.08;1.05;;;;;;;;;;5072623;28;20103;-58
2021/08/04 09:02:35;;;;;;;2.65;1.40;;;;;;;;;;5073109;28;20028;-59
2021/08/04 09:05:04;;;;;;;1.08;0.90;;;;;;;;;;5072098;28;20029;-59
2021/08/04 09:07:33;;;;;;;2.25;1.00;;;;;;;;;;5073120;28;20094;-59
2021/08/04 09:09:58;;;;;;;1.10;0.95;;;;;;;;;;5072381;28;20103;-60
2021/08/04 09:12:24;;;;;;;2.45;0.80;;;;;;;;;;5072989;28;20095;-60
2021/08/04 09:14:49;;;;;;;1.48;1.38;;;;;;;;;;5072542;28;20081;-59
2021/08/04 09:17:15;;;;;;;1.63;1.27;;;;;;;;;;5072858;28;20027;-60
2021/08/04 09:19:53;;;;;;;1.95;1.60;;;;;;;;;;5072776;28;20450;-59
2021/08/04 09:22:20;;;;;;;1.52;1.35;;;;;;;;;;5072040;28;20050;-60
2021/08/04 09:25:09;;;;;;;2.13;1.92;;;;;;;;;;5072132;28;20039;-59
2021/08/04 09:27:39;;;;;;;2.00;1.90;;;;;;;;;;5072762;28;20039;-59
2021/08/04 09:30:04;;;;;;;2.78;2.35;;;;;;;;;;5072306;28;20020;-59
2021/08/04 09:32:31;;;;;;;2.10;1.90;;;;;;;;;;5072317;28;20036;-58
2021/08/04 09:34:56;;;;;;;2.92;2.72;;;;;;;;;;5072053;28;20127;-59
2021/08/04 09:37:22;;;;;;;3.53;3.17;;;;;;;;;;5072599;28;20470;-60
2021/08/04 09:39:53;;;;;;;2.65;2.45;;;;;;;;;;5072077;28;20116;-61
2021/08/04 09:42:18;;;;;;;3.42;2.75;;;;;;;;;;5072730;28;20533;-59
2021/08/04 09:44:56;;;;;;;2.72;2.53;;;;;;;;;;5071816;28;20107;-60
2021/08/04 09:47:22;;;;;;;3.92;3.55;;;;;;;;;;5072145;28;20529;-59
2021/08/04 09:49:57;;;;;;;6.40;3.90;;;;;;;;;;5054454;28;20115;-59
2021/08/04 09:52:23;;;;;;;4.20;3.85;;;;;;;;;;5072442;28;20444;-58
2021/08/04 09:54:48;;;;;;;4.32;3.88;;;;;;;;;;5071886;28;20024;-59
2021/08/04 09:57:13;;;;;;;4.97;4.57;;;;;;;;;;5072172;28;20024;-58
2021/08/04 09:59:39;;;;;;;4.30;3.05;;;;;;;;;;5071678;28;20275;-59
2021/08/04 10:02:04;;;;;;;3.17;2.97;;;;;;;;;;5072267;28;20029;-59
2021/08/04 10:04:30;;;;;;;2.97;2.78;;;;;;;;;;5071635;28;20088;-60
2021/08/04 10:07:04;;;;;;;3.75;3.45;;;;;;;;;;5071592;28;20124;-60
2021/08/04 10:09:30;;;;;;;2.67;2.47;;;;;;;;;;5071112;28;20027;-60
2021/08/04 10:11:55;;;;;;;3.47;2.90;;;;;;;;;;5071879;28;20020;-58
2021/08/04 10:14:21;;;;;;;3.25;2.83;;;;;;;;;;5071298;28;20020;-60
2021/08/04 10:16:47;;;;;;;2.95;2.72;;;;;;;;;;5071804;28;20023;-60
2021/08/04 10:19:13;;;;;;;3.88;3.58;;;;;;;;;;5071867;28;20024;-60
2021/08/04 10:21:42;;;;;;;4.30;3.38;;;;;;;;;;5071843;28;20048;-60
2021/08/04 10:24:07;;;;;;;4.28;3.60;;;;;;;;;;5071532;28;20104;-59
2021/08/04 10:26:34;;;;;;;4.90;2.65;;;;;;;;;;5071486;28;20116;-60
2021/08/04 10:28:59;;;;;;;2.83;2.63;;;;;;;;;;5071740;28;20379;-60
2021/08/04 10:31:25;;;;;;;2.10;1.90;;;;;;;;;;5071927;28;20043;-60
2021/08/04 10:33:50;;;;;;;2.17;1.98;;;;;;;;;;5071341;28;20016;-59
2021/08/04 10:36:17;;;;;;;2.10;1.83;;;;;;;;;;5071663;28;20013;-60
2021/08/04 10:38:44;;;;;;;1.85;1.70;;;;;;;;;;5071655;28;20128;-60
2021/08/04 10:41:12;;;;;;;1.70;1.60;;;;;;;;;;5071665;28;20028;-60
2021/08/04 10:43:40;;;;;;;1.10;1.10;;;;;;;;;;5071407;28;20025;-60
2021/08/04 10:46:24;;;;;;;1.67;1.10;;;;;;;;;;5071222;28;20052;-60
2021/08/04 10:48:49;;;;;;;0.50;0.50;;;;;;;;;;5071629;28;20028;-60
2021/08/04 10:51:16;;;;;;;0.90;0.90;;;;;;;;;;5072491;28;20020;-60
2021/08/04 10:53:59;;;;;;;1.27;1.05;;;;;;;;;;5075249;28;20103;-60
2021/08/04 10:56:24;;;;;;;1.42;0.70;;;;;;;;;;5075546;28;20366;-60
2021/08/04 10:59:12;;;;;;;1.63;1.53;;;;;;;;;;5075103;28;20085;-58
2021/08/04 11:01:39;;;;;;;1.75;0.85;;;;;;;;;;5075377;28;20012;-60
2021/08/04 11:04:05;;;;;;;1.42;1.05;;;;;;;;;;5075198;28;20048;-60
2021/08/04 11:06:30;;;;;;;1.42;1.30;;;;;;;;;;5074640;28;20041;-59
2021/08/04 11:09:14;;;;;;;1.17;1.10;;;;;;;;;;5075596;28;20077;-59
2021/08/04 11:11:52;;;;;;;1.95;1.42;;;;;;;;;;5074906;28;20021;-56
2021/08/04 11:14:33;;;;;;;2.55;2.33;;;;;;;;;;5075063;28;20070;-59
2021/08/04 11:17:01;;;;;;;2.75;2.55;;;;;;;;;;5056538;28;20020;-59
2021/08/04 11:19:34;;;;;;;2.38;2.17;;;;;;;;;;5075103;28;20103;-59
2021/08/04 11:22:18;;;;;;;2.38;2.25;;;;;;;;;;5074978;28;20078;-59
2021/08/04 11:24:53;;;;;;;3.15;2.40;;;;;;;;;;5074617;28;20017;-59
2021/08/04 11:27:19;;;;;;;3.00;2.75;;;;;;;;;;5075193;28;20482;-59
2021/08/04 11:29:45;;;;;;;3.15;2.88;;;;;;;;;;5074810;28;20489;-58
2021/08/04 11:32:16;;;;;;;2.80;2.60;;;;;;;;;;5075001;28;20095;-59
2021/08/04 11:34:41;;;;;;;2.97;2.75;;;;;;;;;;5074675;28;20043;-59
2021/08/04 11:37:07;;;;;;;2.90;2.70;;;;;;;;;;5074312;28;20423;-59
2021/08/04 11:39:32;;;;;;;2.77;2.57;;;;;;;;;;5074819;28;20265;-59
2021/08/04 11:41:57;;;;;;;3.55;2.42;;;;;;;;;;5074954;28;20251;-60
2021/08/04 11:44:28;;;;;;;3.72;3.50;;;;;;;;;;5074139;28;20020;-59
2021/08/04 11:47:01;;;;;;;3.20;3.00;;;;;;;;;;5074141;28;20071;-59
2021/08/04 11:49:26;;;;;;;3.30;2.42;;;;;;;;;;5074591;28;20019;-59
2021/08/04 11:51:53;;;;;;;3.40;2.45;;;;;;;;;;5074203;28;20020;-59
2021/08/04 11:54:34;;;;;;;2.65;2.42;;;;;;;;;;5074679;28;20032;-59
2021/08/04 11:56:59;;;;;;;2.05;1.95;;;;;;;;;;5074404;28;20868;-59
2021/08/04 11:59:24;;;;;;;1.90;1.80;;;;;;;;;;5073872;28;20025;-59
2021/08/04 12:01:57;;;;;;;0.90;0.90;;;;;;;;;;5074348;28;20027;-58
2021/08/04 12:04:22;;;;;;;1.35;0.82;;;;;;;;;;5074148;28;20017;-59
2021/08/04 12:07:06;;;;;;;0.50;0.40;;;;;;;;;;5092138;28;20502;-59
2021/08/04 12:09:32;;;;;;;0.22;0.20;;;;;;;;;;5065303;28;20059;-59
2021/08/04 12:11:58;;;;;;;0.45;0.20;;;;;;;;;;5074178;28;20027;-60
2021/08/04 12:14:24;;;;;;;0.50;0.30;;;;;;;;;;5073717;28;20394;-59
2021/08/04 12:16:51;;;;;;;0.20;0.20;;;;;;;;;;5073787;28;20493;-59
2021/08/04 12:19:26;;;;;;;0.68;0.20;;;;;;;;;;5074179;28;20031;-58
2021/08/04 12:21:51;;;;;;;1.38;0.30;;;;;;;;;;5073790;28;20105;-59
2021/08/04 12:24:17;;;;;;;0.30;0.30;;;;;;;;;;5074024;28;20051;-60
2021/08/04 12:26:46;;;;;;;0.75;0.50;;;;;;;;;;5073796;28;20092;-59
2021/08/04 12:29:15;;;;;;;0.90;0.55;;;;;;;;;;5073692;28;20061;-59
2021/08/04 12:31:40;;;;;;;0.73;0.47;;;;;;;;;;5073430;28;20040;-59
2021/08/04 12:34:07;;;;;;;0.80;0.40;;;;;;;;;;5073197;28;20355;-59
2021/08/04 12:36:45;;;;;;;0.85;0.30;;;;;;;;;;5073375;28;20603;-59
2021/08/04 12:39:10;;;;;;;0.63;0.38;;;;;;;;;;5073791;28;20036;-59
2021/08/04 12:41:36;;;;;;;0.50;0.40;;;;;;;;;;5055887;28;20426;-59
2021/08/04 12:44:04;;;;;;;0.63;0.50;;;;;;;;;;5073134;28;20062;-59
2021/08/04 12:46:32;;;;;;;1.85;0.47;;;;;;;;;;5072484;28;20287;-60
2021/08/04 12:48:59;;;;;;;1.95;0.30;;;;;;;;;;5072959;28;20521;-60
2021/08/04 12:51:25;;;;;;;1.55;0.30;;;;;;;;;;5073170;28;20024;-59
2021/08/04 12:53:57;;;;;;;1.27;0.30;;;;;;;;;;5072699;28;20428;-59
2021/08/04 12:56:32;;;;;;;0.30;0.30;;;;;;;;;;5073157;28;20474;-59
2021/08/04 12:58:58;;;;;;;0.30;0.20;;;;;;;;;;5072789;28;20389;-59
2021/08/04 13:01:24;;;;;;;0.73;0.38;;;;;;;;;;5073197;28;20416;-59
2021/08/04 13:03:50;;;;;;;1.27;0.35;;;;;;;;;;5072134;28;20462;-59
2021/08/04 13:06:20;;;;;;;1.88;0.50;;;;;;;;;;5072709;28;20079;-59
2021/08/04 13:08:45;;;;;;;0.40;0.40;;;;;;;;;;5073000;28;20487;-60
2021/08/04 13:11:26;;;;;;;1.00;0.30;;;;;;;;;;5073047;28;20025;-59
2021/08/04 13:13:57;;;;;;;0.40;0.40;;;;;;;;;;5071317;28;20032;-59
2021/08/04 13:16:29;;;;;;;0.90;0.50;;;;;;;;;;5072754;28;20371;-60
2021/08/04 13:18:54;;;;;;;2.10;0.63;;;;;;;;;;5072882;28;20027;-58
2021/08/04 13:21:19;;;;;;;1.33;0.50;;;;;;;;;;5072814;28;20032;-55
2021/08/04 13:23:44;;;;;;;0.70;0.70;;;;;;;;;;5072825;28;20250;-58
2021/08/04 13:26:11;;;;;;;0.83;0.57;;;;;;;;;;5072359;28;20279;-58
2021/08/04 13:28:37;;;;;;;0.77;0.70;;;;;;;;;;5072303;28;20294;-58
2021/08/04 13:31:03;;;;;;;1.13;0.70;;;;;;;;;;5072407;28;20023;-59
2021/08/04 13:33:29;;;;;;;0.60;0.40;;;;;;;;;;5072808;28;20499;-58
2021/08/04 13:35:56;;;;;;;2.13;0.50;;;;;;;;;;5072143;28;20032;-58
2021/08/04 13:38:22;;;;;;;1.08;0.47;;;;;;;;;;5072851;28;20024;-58
2021/08/04 13:40:47;;;;;;;0.65;0.40;;;;;;;;;;5072685;28;20026;-58
2021/08/04 13:43:13;;;;;;;0.98;0.40;;;;;;;;;;5071583;28;20022;-58
2021/08/04 13:45:38;;;;;;;0.43;0.43;;;;;;;;;;5071932;28;20021;-58
2021/08/04 13:48:03;;;;;;;0.65;0.30;;;;;;;;;;5071702;28;20020;-58
2021/08/04 13:50:29;;;;;;;1.08;0.57;;;;;;;;;;5071993;28;20024;-59
2021/08/04 13:52:55;;;;;;;1.42;0.30;;;;;;;;;;5054077;28;20017;-59
2021/08/04 13:55:21;;;;;;;1.25;0.60;;;;;;;;;;5071944;28;20398;-58
2021/08/04 13:57:47;;;;;;;1.08;0.77;;;;;;;;;;5072268;28;20027;-59
2021/08/04 14:00:14;;;;;;;1.65;0.70;;;;;;;;;;5071244;28;20421;-59
2021/08/04 14:02:39;;;;;;;0.70;0.55;;;;;;;;;;5071854;28;20085;-58
2021/08/04 14:05:05;;;;;;;1.33;0.50;;;;;;;;;;5071667;28;20032;-59
2021/08/04 14:07:31;;;;;;;0.70;0.40;;;;;;;;;;5071750;28;20409;-59
2021/08/04 14:09:56;;;;;;;0.50;0.40;;;;;;;;;;5072554;28;20021;-59
2021/08/04 14:12:21;;;;;;;1.10;0.60;;;;;;;;;;5071723;28;20020;-59
2021/08/04 14:14:47;;;;;;;1.17;0.70;;;;;;;;;;5071503;28;20107;-59
2021/08/04 14:17:12;;;;;;;1.00;0.60;;;;;;;;;;5071926;28;20013;-58
2021/08/04 14:19:37;;;;;;;1.05;0.70;;;;;;;;;;5072059;28;20654;-59
2021/08/04 14:22:03;;;;;;;1.48;0.90;;;;;;;;;;5071699;28;20017;-58
2021/08/04 14:24:28;;;;;;;1.65;0.80;;;;;;;;;;5071763;28;20021;-58
2021/08/04 14:26:54;;;;;;;0.93;0.80;;;;;;;;;;5070744;28;20024;-59
2021/08/04 14:29:19;;;;;;;1.77;1.00;;;;;;;;;;5071602;28;20062;-59
2021/08/04 14:31:45;;;;;;;1.73;1.20;;;;;;;;;;5071915;28;20013;-59
2021/08/04 14:34:10;;;;;;;2.03;1.80;;;;;;;;;;5071505;28;20312;-59
2021/08/04 14:36:35;;;;;;;2.45;1.33;;;;;;;;;;5071145;28;20104;-59
2021/08/04 14:39:00;;;;;;;1.42;1.20;;;;;;;;;;5071979;28;20024;-59
2021/08/04 14:41:26;;;;;;;1.00;0.98;;;;;;;;;;5071824;28;20024;-59